createdAt,value
2022-08-18T00:01:44.137Z,23.20
2022-08-18T00:04:15.363Z,23.10
2022-08-18T00:06:58.960Z,23.10
2022-08-18T00:09:30.167Z,23.10
2022-08-18T00:11:58.720Z,23.00
2022-08-18T00:14:25.341Z,23.00
2022-08-18T00:16:53.909Z,22.90
2022-08-18T00:19:43.518Z,22.90
2022-08-18T00:22:09.255Z,22.90
2022-08-18T00:24:48.512Z,22.80
2022-08-18T00:27:31.356Z,22.90
2022-08-18T00:30:01.415Z,22.80
2022-08-18T00:32:34.520Z,22.90
2022-08-18T00:35:13.579Z,23.00
2022-08-18T00:37:41.393Z,23.00
2022-08-18T00:40:12.267Z,23.00
2022-08-18T00:42:46.004Z,23.00
2022-08-18T00:45:27.172Z,23.00
2022-08-18T00:47:54.781Z,22.90
2022-08-18T00:50:27.725Z,23.00
2022-08-18T00:53:00.547Z,22.90
2022-08-18T00:55:30.051Z,22.90
2022-08-18T00:58:08.781Z,23.00
2022-08-18T01:00:36.189Z,22.90
2022-08-18T01:03:08.559Z,22.90
2022-08-18T01:05:49.820Z,22.90
2022-08-18T01:08:17.217Z,23.00
2022-08-18T01:10:55.350Z,23.00
2022-08-18T01:13:27.614Z,23.00
2022-08-18T01:15:54.235Z,22.90
2022-08-18T01:18:40.358Z,22.80
2022-08-18T01:21:45.042Z,22.70
2022-08-18T01:24:12.958Z,22.70
2022-08-18T01:26:45.855Z,22.70
2022-08-18T01:29:18.923Z,22.70
2022-08-18T01:31:55.416Z,22.70
2022-08-18T01:34:25.113Z,22.70
2022-08-18T01:36:54.015Z,22.80
2022-08-18T01:40:59.942Z,22.80
2022-08-18T01:42:08.621Z,22.80
2022-08-18T01:44:35.430Z,22.80
2022-08-18T01:47:02.079Z,22.60
2022-08-18T01:49:28.754Z,22.60
2022-08-18T01:51:58.447Z,22.60
2022-08-18T01:54:29.850Z,22.60
2022-08-18T01:56:56.966Z,22.70
2022-08-18T01:59:23.670Z,22.70
2022-08-18T02:01:56.203Z,22.70
2022-08-18T02:04:36.941Z,22.50
2022-08-18T02:07:07.496Z,22.40
2022-08-18T02:09:35.142Z,22.50
2022-08-18T02:12:01.827Z,22.30
2022-08-18T02:14:31.307Z,22.30
2022-08-18T02:17:02.431Z,22.30
2022-08-18T02:19:43.377Z,22.30
2022-08-18T02:22:16.120Z,22.30
2022-08-18T02:24:43.360Z,22.30
2022-08-18T02:27:11.349Z,22.40
2022-08-18T02:29:38.539Z,22.30
2022-08-18T02:32:05.951Z,22.30
2022-08-18T02:34:32.686Z,22.40
2022-08-18T02:37:00.742Z,22.40
2022-08-18T02:39:28.177Z,22.40
2022-08-18T02:41:54.843Z,22.40
2022-08-18T02:44:21.525Z,22.40
2022-08-18T02:46:53.758Z,22.40
2022-08-18T02:49:20.533Z,22.50
2022-08-18T02:51:47.119Z,22.50
2022-08-18T02:54:13.739Z,22.50
2022-08-18T02:56:42.539Z,22.50
2022-08-18T02:59:12.561Z,22.50
2022-08-18T03:01:42.199Z,22.50
2022-08-18T03:04:12.327Z,22.50
2022-08-18T03:06:39.298Z,22.40
2022-08-18T03:09:07.233Z,22.40
2022-08-18T03:11:34.131Z,22.40
2022-08-18T03:14:01.213Z,22.40
2022-08-18T03:16:31.315Z,22.40
2022-08-18T03:18:58.462Z,22.40
2022-08-18T03:21:27.571Z,22.30
2022-08-18T03:24:00.361Z,22.30
2022-08-18T03:26:30.983Z,22.30
2022-08-18T03:28:59.887Z,22.20
2022-08-18T03:31:31.123Z,22.20
2022-08-18T03:33:59.921Z,22.30
2022-08-18T03:36:30.619Z,22.30
2022-08-18T03:38:57.886Z,22.30
2022-08-18T03:41:44.388Z,22.40
2022-08-18T03:44:15.183Z,22.20
2022-08-18T03:46:43.616Z,22.10
2022-08-18T03:49:10.845Z,22.00
2022-08-18T03:51:38.395Z,22.00
2022-08-18T03:54:05.990Z,22.10
2022-08-18T03:56:35.514Z,22.00
2022-08-18T03:59:07.692Z,22.10
2022-08-18T04:01:39.214Z,22.20
2022-08-18T04:04:09.325Z,22.10
2022-08-18T04:06:45.434Z,21.90
2022-08-18T04:09:14.830Z,21.80
2022-08-18T04:11:43.377Z,21.60
2022-08-18T04:14:13.368Z,21.50
2022-08-18T04:16:41.109Z,21.60
2022-08-18T04:19:08.738Z,21.50
2022-08-18T04:21:38.626Z,21.40
2022-08-18T04:24:07.331Z,21.40
2022-08-18T04:26:37.490Z,21.50
2022-08-18T04:29:06.010Z,21.50
2022-08-18T04:31:32.774Z,21.40
2022-08-18T04:34:01.013Z,21.30
2022-08-18T04:36:29.284Z,21.30
2022-08-18T04:38:56.915Z,21.30
2022-08-18T04:41:26.939Z,21.30
2022-08-18T04:43:58.345Z,21.30
2022-08-18T04:46:26.049Z,21.40
2022-08-18T04:48:58.583Z,21.50
2022-08-18T04:52:38.971Z,21.80
2022-08-18T04:54:15.927Z,22.00
2022-08-18T04:56:42.499Z,22.00
2022-08-18T04:59:11.627Z,21.90
2022-08-18T05:01:45.526Z,21.90
2022-08-18T05:04:14.158Z,21.80
2022-08-18T05:06:42.539Z,21.90
2022-08-18T05:09:11.183Z,21.70
2022-08-18T05:11:39.009Z,21.70
2022-08-18T05:14:07.925Z,21.70
2022-08-18T05:16:36.550Z,21.70
2022-08-18T05:19:19.203Z,21.70
2022-08-18T05:21:46.245Z,21.80
2022-08-18T05:24:17.687Z,21.70
2022-08-18T05:26:44.467Z,21.70
2022-08-18T05:29:19.003Z,21.70
2022-08-18T05:31:46.919Z,21.80
2022-08-18T05:34:13.709Z,21.90
2022-08-18T05:36:46.944Z,21.90
2022-08-18T05:39:19.795Z,21.90
2022-08-18T05:42:00.247Z,22.10
2022-08-18T05:44:29.403Z,22.20
2022-08-18T05:47:18.725Z,22.20
2022-08-18T05:49:50.275Z,22.20
2022-08-18T05:52:45.813Z,22.30
2022-08-18T05:55:48.203Z,22.20
2022-08-18T05:58:37.745Z,22.30
2022-08-18T06:01:18.591Z,22.30
2022-08-18T06:03:56.587Z,22.30
2022-08-18T06:06:29.452Z,22.20
2022-08-18T06:09:23.776Z,22.10
2022-08-18T06:11:53.100Z,22.20
2022-08-18T06:14:20.096Z,22.30
2022-08-18T06:17:18.322Z,22.50
2022-08-18T06:20:03.173Z,22.60
2022-08-18T06:22:55.277Z,22.70
2022-08-18T06:25:35.410Z,22.70
2022-08-18T06:28:22.295Z,22.80
2022-08-18T06:31:06.935Z,22.90
2022-08-18T06:33:50.202Z,23.00
2022-08-18T06:36:39.258Z,23.20
2022-08-18T06:39:18.056Z,23.30
2022-08-18T06:41:49.059Z,23.40
2022-08-18T06:44:50.429Z,23.40
2022-08-18T06:47:40.849Z,23.30
2022-08-18T06:50:13.494Z,23.20
2022-08-18T06:52:53.229Z,22.90
2022-08-18T06:55:51.731Z,22.70
2022-08-18T06:58:18.271Z,22.70
2022-08-18T07:00:51.804Z,22.70
2022-08-18T07:03:41.041Z,22.60
2022-08-18T07:06:25.519Z,22.70
2022-08-18T07:08:54.697Z,22.70
2022-08-18T07:11:31.592Z,22.70
2022-08-18T07:14:22.049Z,22.70
2022-08-18T07:16:58.889Z,22.70
2022-08-18T07:19:30.586Z,22.90
2022-08-18T07:22:10.523Z,22.80
2022-08-18T07:24:55.964Z,23.00
2022-08-18T07:27:49.017Z,23.20
2022-08-18T07:30:21.446Z,23.40
2022-08-18T07:33:04.570Z,23.60
2022-08-18T07:35:49.148Z,23.70
2022-08-18T07:38:43.079Z,23.90
2022-08-18T07:41:42.688Z,24.10
2022-08-18T07:44:27.540Z,24.20
2022-08-18T07:47:12.568Z,24.40
2022-08-18T07:49:59.672Z,24.50
2022-08-18T07:52:46.864Z,24.60
2022-08-18T07:55:35.407Z,24.70
2022-08-18T07:58:31.802Z,24.80
2022-08-18T08:01:29.700Z,24.80
2022-08-18T08:04:09.523Z,24.80
2022-08-18T08:07:26.234Z,24.70
2022-08-18T08:10:26.535Z,24.70
2022-08-18T08:13:26.061Z,24.60
2022-08-18T08:16:18.686Z,24.60
2022-08-18T08:19:15.195Z,24.40
2022-08-18T08:22:00.855Z,24.10
2022-08-18T08:24:56.663Z,24.00
2022-08-18T08:27:45.339Z,23.90
2022-08-18T08:30:15.213Z,23.90
2022-08-18T08:33:02.283Z,24.00
2022-08-18T08:36:01.263Z,24.00
2022-08-18T08:38:44.988Z,24.10
2022-08-18T08:41:28.242Z,24.10
2022-08-18T08:44:09.287Z,24.20
2022-08-18T08:46:51.610Z,24.40
2022-08-18T08:49:27.468Z,24.60
2022-08-18T08:52:05.341Z,24.90
2022-08-18T08:54:51.363Z,25.00
2022-08-18T08:57:20.557Z,25.20
2022-08-18T08:59:49.795Z,25.30
2022-08-18T09:02:54.578Z,25.60
2022-08-18T09:05:26.450Z,26.00
2022-08-18T09:08:08.292Z,26.30
2022-08-18T09:11:05.662Z,26.30
2022-08-18T09:14:04.036Z,26.50
2022-08-18T09:17:04.831Z,26.80
2022-08-18T09:19:39.591Z,27.20
2022-08-18T09:22:12.190Z,27.50
2022-08-18T09:24:47.170Z,27.30
2022-08-18T09:27:30.624Z,27.00
2022-08-18T09:30:00.677Z,26.70
2022-08-18T09:32:27.215Z,26.50
2022-08-18T09:35:00.945Z,26.70
2022-08-18T09:37:33.698Z,26.60
2022-08-18T09:40:59.388Z,26.30
2022-08-18T09:43:37.452Z,26.20
2022-08-18T09:46:05.603Z,26.30
2022-08-18T09:48:43.227Z,26.30
2022-08-18T09:51:18.318Z,26.20
2022-08-18T09:53:45.842Z,26.20
2022-08-18T09:56:19.629Z,25.80
2022-08-18T09:59:00.216Z,25.70
2022-08-18T10:01:30.170Z,25.70
2022-08-18T10:04:15.043Z,25.70
2022-08-18T10:06:48.934Z,25.60
2022-08-18T10:12:29.435Z,25.30
2022-08-18T10:15:12.165Z,25.20
2022-08-18T10:18:14.225Z,25.20
2022-08-18T10:20:58.507Z,25.10
2022-08-18T10:26:38.695Z,25.00
2022-08-18T10:29:11.666Z,24.80
2022-08-18T10:31:59.694Z,24.90
2022-08-18T10:37:44.361Z,25.10
2022-08-18T10:40:13.517Z,25.20
2022-08-18T10:43:00.265Z,25.20
2022-08-18T10:45:31.496Z,25.20
2022-08-18T10:48:05.171Z,25.20
2022-08-18T10:50:48.831Z,25.20
2022-08-18T10:53:39.275Z,25.40
2022-08-18T10:56:26.706Z,25.50
2022-08-18T10:59:32.279Z,25.50
2022-08-18T11:02:31.718Z,25.40
2022-08-18T11:04:59.946Z,25.60
2022-08-18T11:10:31.925Z,26.30
2022-08-18T11:13:31.228Z,26.30
2022-08-18T11:16:36.287Z,26.60
2022-08-18T11:19:16.861Z,27.40
2022-08-18T11:21:46.202Z,27.70
2022-08-18T11:24:24.177Z,28.10
2022-08-18T11:27:02.148Z,28.50
2022-08-18T11:29:33.086Z,28.30
2022-08-18T11:32:03.904Z,27.90
2022-08-18T11:34:41.284Z,28.00
2022-08-18T11:37:49.730Z,28.20
2022-08-18T11:40:51.588Z,28.20
2022-08-18T11:43:15.298Z,28.60
2022-08-18T11:46:10.252Z,28.50
2022-08-18T11:48:51.687Z,28.50
2022-08-18T11:51:25.026Z,28.70
2022-08-18T11:53:58.342Z,28.90
2022-08-18T11:56:32.355Z,28.80
2022-08-18T12:02:21.015Z,28.30
2022-08-18T12:04:52.739Z,28.30
2022-08-18T12:07:32.022Z,28.60
2022-08-18T12:10:26.011Z,29.00
2022-08-18T12:12:55.848Z,29.10
2022-08-18T12:15:44.203Z,29.30
2022-08-18T12:18:26.454Z,29.70
2022-08-18T12:20:56.990Z,29.40
2022-08-18T12:23:24.203Z,29.50
2022-08-18T12:25:51.706Z,29.80
2022-08-18T12:28:19.687Z,30.10
2022-08-18T12:30:56.286Z,30.50
2022-08-18T12:33:25.662Z,30.30
2022-08-18T12:36:04.188Z,30.50
2022-08-18T12:38:32.461Z,30.80
2022-08-18T12:41:03.409Z,31.20
2022-08-18T12:43:32.316Z,31.50
2022-08-18T12:46:00.042Z,31.00
2022-08-18T12:48:29.885Z,30.90
2022-08-18T12:50:58.394Z,30.80
2022-08-18T12:53:29.532Z,30.80
2022-08-18T12:56:14.185Z,31.00
2022-08-18T12:58:40.789Z,31.10
2022-08-18T13:01:07.592Z,31.20
2022-08-18T13:03:35.220Z,31.10
2022-08-18T13:06:04.466Z,31.20
2022-08-18T13:08:33.800Z,31.30
2022-08-18T13:11:19.857Z,31.30
2022-08-18T13:13:56.300Z,31.20
2022-08-18T13:16:38.644Z,31.30
2022-08-18T13:19:14.387Z,31.20
2022-08-18T13:21:43.057Z,31.20
2022-08-18T13:24:12.507Z,31.30
2022-08-18T13:26:45.605Z,31.30
2022-08-18T13:29:14.222Z,31.60
2022-08-18T13:31:41.048Z,31.90
2022-08-18T13:34:19.310Z,31.50
2022-08-18T13:36:48.210Z,31.20
2022-08-18T13:39:17.456Z,31.10
2022-08-18T13:41:45.689Z,30.70
2022-08-18T13:44:18.854Z,30.50
2022-08-18T13:46:47.944Z,30.40
2022-08-18T13:49:23.445Z,30.40
2022-08-18T13:51:52.475Z,30.40
2022-08-18T13:54:31.261Z,30.50
2022-08-18T13:56:58.621Z,30.70
2022-08-18T13:59:31.384Z,30.80
2022-08-18T14:01:59.556Z,30.60
2022-08-18T14:04:27.716Z,30.40
2022-08-18T14:06:57.201Z,30.50
2022-08-18T14:09:36.720Z,30.50
2022-08-18T14:12:33.224Z,30.50
2022-08-18T14:15:00.209Z,30.10
2022-08-18T14:17:28.047Z,30.20
2022-08-18T14:20:21.309Z,30.20
2022-08-18T14:23:13.050Z,30.40
2022-08-18T14:25:59.963Z,30.20
2022-08-18T14:28:28.237Z,29.90
2022-08-18T14:30:57.119Z,29.60
2022-08-18T14:33:26.148Z,29.60
2022-08-18T14:36:06.315Z,29.60
2022-08-18T14:38:36.287Z,29.40
2022-08-18T14:41:06.997Z,29.20
2022-08-18T14:44:04.032Z,29.00
2022-08-18T14:46:23.247Z,28.90
2022-08-18T14:48:57.021Z,28.90
2022-08-18T14:51:27.246Z,28.60
2022-08-18T14:53:54.285Z,28.50
2022-08-18T14:56:23.414Z,28.40
2022-08-18T14:58:55.150Z,28.20
2022-08-18T15:01:22.725Z,28.30
2022-08-18T15:03:49.755Z,28.30
2022-08-18T15:06:17.240Z,28.00
2022-08-18T15:08:49.818Z,27.90
2022-08-18T15:11:17.378Z,27.80
2022-08-18T15:13:46.042Z,27.50
2022-08-18T15:16:14.964Z,27.40
2022-08-18T15:18:43.616Z,27.40
2022-08-18T15:21:35.281Z,27.20
2022-08-18T15:24:25.759Z,27.10
2022-08-18T15:26:57.562Z,27.00
2022-08-18T15:29:28.991Z,27.00
2022-08-18T15:32:05.583Z,27.10
2022-08-18T15:34:33.405Z,27.20
2022-08-18T15:37:15.783Z,27.40
2022-08-18T15:39:46.743Z,27.40
2022-08-18T15:42:19.038Z,27.40
2022-08-18T15:44:47.182Z,27.30
2022-08-18T15:47:20.712Z,27.00
2022-08-18T15:49:47.969Z,26.90
2022-08-18T15:52:15.201Z,26.80
2022-08-18T15:54:44.507Z,26.50
2022-08-18T15:57:39.116Z,26.70
2022-08-18T16:00:05.356Z,26.90
2022-08-18T16:02:32.094Z,26.90
2022-08-18T16:05:10.158Z,26.70
2022-08-18T16:07:40.942Z,26.50
2022-08-18T16:10:12.788Z,26.40
2022-08-18T16:12:45.616Z,26.40
2022-08-18T16:15:15.182Z,26.40
2022-08-18T16:17:47.654Z,26.30
2022-08-18T16:20:14.734Z,26.30
2022-08-18T16:22:41.767Z,26.30
2022-08-18T16:25:09.938Z,26.20
2022-08-18T16:27:41.285Z,26.20
2022-08-18T16:30:14.325Z,26.20
2022-08-18T16:32:41.079Z,26.00
2022-08-18T16:35:08.110Z,25.90
2022-08-18T16:37:34.821Z,25.90
2022-08-18T16:40:01.517Z,26.00
2022-08-18T16:42:32.461Z,26.10
2022-08-18T16:45:00.141Z,26.30
2022-08-18T16:47:27.278Z,26.40
2022-08-18T16:49:58.566Z,26.30
2022-08-18T16:52:25.451Z,26.20
2022-08-18T16:54:57.720Z,26.10
2022-08-18T16:57:53.121Z,26.10
2022-08-18T17:00:39.827Z,26.00
2022-08-18T17:03:25.712Z,26.00
2022-08-18T17:06:02.039Z,26.10
2022-08-18T17:08:28.861Z,26.10
2022-08-18T17:10:55.485Z,25.90
2022-08-18T17:13:23.072Z,25.90
2022-08-18T17:15:50.660Z,25.80
2022-08-18T17:18:17.386Z,25.70
2022-08-18T17:20:43.995Z,25.70
2022-08-18T17:23:10.634Z,25.70
2022-08-18T17:25:37.771Z,25.60
2022-08-18T17:28:09.987Z,25.50
2022-08-18T17:30:47.635Z,25.60
2022-08-18T17:33:19.426Z,25.60
2022-08-18T17:35:47.525Z,25.70
2022-08-18T17:38:40.214Z,25.60
2022-08-18T17:41:07.232Z,25.60
2022-08-18T17:46:27.206Z,25.50
2022-08-18T17:48:57.094Z,25.50
2022-08-18T17:51:48.920Z,25.40
2022-08-18T17:54:23.345Z,25.40
2022-08-18T17:56:53.643Z,25.40
2022-08-18T17:59:46.032Z,25.30
2022-08-18T18:02:28.754Z,25.20
2022-08-18T18:04:59.106Z,25.20
2022-08-18T18:07:29.781Z,25.20
2022-08-18T18:10:22.659Z,25.10
2022-08-18T18:13:26.961Z,25.00
2022-08-18T18:16:01.058Z,25.00
2022-08-18T18:18:45.419Z,25.00
2022-08-18T18:21:15.460Z,24.90
2022-08-18T18:23:51.608Z,24.80
2022-08-18T18:26:23.357Z,24.80
2022-08-18T18:28:50.583Z,24.80
2022-08-18T18:31:26.770Z,24.80
2022-08-18T18:34:00.172Z,24.80
2022-08-18T18:36:40.201Z,24.80
2022-08-18T18:39:19.826Z,24.70
2022-08-18T18:41:48.461Z,24.70
2022-08-18T18:44:16.092Z,24.70
2022-08-18T18:47:02.350Z,24.80
2022-08-18T18:49:49.749Z,24.70
2022-08-18T18:52:47.868Z,24.60
2022-08-18T18:55:19.447Z,24.60
2022-08-18T18:58:04.913Z,24.60
2022-08-18T19:00:53.692Z,24.60
2022-08-18T19:03:35.298Z,24.60
2022-08-18T19:06:13.986Z,24.50
2022-08-18T19:08:43.687Z,24.60
2022-08-18T19:11:16.551Z,24.50
2022-08-18T19:13:57.314Z,24.40
2022-08-18T19:16:39.803Z,24.40
2022-08-18T19:19:37.453Z,24.40
2022-08-18T19:22:09.975Z,24.30
2022-08-18T19:24:44.822Z,24.30
2022-08-18T19:27:23.437Z,24.20
2022-08-18T19:29:54.230Z,24.20
2022-08-18T19:32:30.910Z,24.20
2022-08-18T19:34:58.459Z,24.10
2022-08-18T19:37:42.567Z,24.10
2022-08-18T19:40:40.415Z,24.10
2022-08-18T19:43:27.552Z,24.10
2022-08-18T19:46:15.001Z,24.20
2022-08-18T19:48:52.810Z,24.10
2022-08-18T19:51:25.331Z,24.10
2022-08-18T19:53:57.677Z,24.10
2022-08-18T19:56:27.594Z,24.00
2022-08-18T19:59:26.008Z,24.10
2022-08-18T20:02:27.918Z,24.10
2022-08-18T20:05:28.171Z,24.10
2022-08-18T20:08:19.491Z,24.00
2022-08-18T20:10:58.340Z,23.90
2022-08-18T20:13:33.078Z,23.90
2022-08-18T20:16:13.023Z,23.90
2022-08-18T20:18:46.028Z,23.90
2022-08-18T20:21:15.551Z,23.90
2022-08-18T20:24:18.254Z,23.80
2022-08-18T20:26:49.410Z,23.80
2022-08-18T20:29:19.545Z,23.70
2022-08-18T20:31:49.538Z,23.80
2022-08-18T20:34:20.797Z,23.80
2022-08-18T20:36:49.253Z,23.70
2022-08-18T20:39:43.505Z,23.60
2022-08-18T20:42:34.303Z,23.70
2022-08-18T20:45:13.634Z,23.60
2022-08-18T20:47:52.164Z,23.60
2022-08-18T20:50:33.767Z,23.60
2022-08-18T20:53:49.886Z,23.50
2022-08-18T20:56:46.526Z,23.50
2022-08-18T20:59:29.115Z,23.40
2022-08-18T21:02:04.540Z,23.50
2022-08-18T21:04:38.166Z,23.40
2022-08-18T21:07:19.242Z,23.40
2022-08-18T21:10:19.935Z,23.20
2022-08-18T21:12:53.700Z,23.20
2022-08-18T21:15:24.274Z,23.20
2022-08-18T21:18:02.274Z,23.20
2022-08-18T21:20:29.614Z,23.10
2022-08-18T21:23:12.500Z,23.30
2022-08-18T21:25:53.686Z,23.20
2022-08-18T21:28:22.588Z,23.20
2022-08-18T21:31:41.746Z,23.20
2022-08-18T21:34:13.502Z,23.20
2022-08-18T21:36:50.938Z,23.20
2022-08-18T21:39:19.426Z,23.10
2022-08-18T21:41:49.487Z,23.10
2022-08-18T21:44:21.909Z,23.10
2022-08-18T21:46:49.113Z,23.00
2022-08-18T21:49:28.132Z,23.00
2022-08-18T21:51:54.782Z,23.00
2022-08-18T21:54:24.972Z,23.00
2022-08-18T21:57:18.316Z,22.90
2022-08-18T22:00:23.849Z,22.80
2022-08-18T22:02:52.070Z,22.60
2022-08-18T22:05:57.846Z,22.50
2022-08-18T22:08:22.238Z,22.50
2022-08-18T22:11:36.414Z,22.50
2022-08-18T22:14:53.650Z,22.40
2022-08-18T22:17:48.258Z,22.50
2022-08-18T22:20:41.198Z,22.50
2022-08-18T22:23:32.480Z,22.50
2022-08-18T22:26:23.422Z,22.50
2022-08-18T22:29:02.061Z,22.20
2022-08-18T22:31:32.421Z,22.20
2022-08-18T22:34:07.246Z,22.00
2022-08-18T22:36:45.075Z,22.00
2022-08-18T22:39:16.732Z,21.90
2022-08-18T22:41:46.126Z,21.90
2022-08-18T22:44:12.801Z,21.90
2022-08-18T22:46:39.417Z,21.90
2022-08-18T22:49:06.108Z,22.00
2022-08-18T22:51:37.027Z,22.10
2022-08-18T22:54:09.665Z,22.10
2022-08-18T22:56:38.139Z,22.10
2022-08-18T22:59:15.735Z,22.20
2022-08-18T23:01:45.396Z,22.30
2022-08-18T23:04:12.242Z,22.30
2022-08-18T23:06:38.880Z,22.40
2022-08-18T23:09:05.642Z,22.40
2022-08-18T23:11:32.423Z,22.50
2022-08-18T23:14:02.471Z,22.60
2022-08-18T23:16:30.966Z,22.70
2022-08-18T23:19:01.598Z,22.60
2022-08-18T23:21:35.059Z,22.70
2022-08-18T23:24:07.367Z,22.60
2022-08-18T23:26:34.498Z,22.60
2022-08-18T23:29:01.418Z,22.60
2022-08-18T23:31:28.120Z,22.50
2022-08-18T23:33:54.740Z,22.60
2022-08-18T23:36:21.564Z,22.60
2022-08-18T23:38:48.337Z,22.60
2022-08-18T23:41:16.235Z,22.50
2022-08-18T23:43:43.182Z,22.50
2022-08-18T23:46:21.952Z,22.50
2022-08-18T23:48:52.962Z,22.50
2022-08-18T23:51:41.551Z,22.40
2022-08-18T23:54:11.727Z,22.40
2022-08-18T23:56:38.653Z,22.40
2022-08-18T23:59:07.441Z,22.40
